Time;durP1;ratioP1;P1;durP2;ratioP2;P2;SDS_P1;SDS_P2;PMS_P1;PMS_P2;Temp;Humidity;BMP_temperature;BMP_pressure;BME280_temperature;BME280_humidity;BME280_pressure;Samples;Min_cycle;Max_cycle;Signal;HPM_P1;HPM_P2
2022/07/06 00:02:12;;;;;;;211.73;195.63;;;15.10;99.90;;;;;;5092388;28;20179;-66
2022/07/06 00:04:40;;;;;;;212.57;196.10;;;15.10;99.90;;;;;;5091790;28;20194;-65
2022/07/06 00:07:07;;;;;;;207.90;193.10;;;15.30;99.90;;;;;;5091922;28;20201;-64
2022/07/06 00:09:37;;;;;;;212.03;196.73;;;15.30;99.90;;;;;;5092336;28;20186;-66
2022/07/06 00:12:04;;;;;;;226.53;208.70;;;15.40;99.90;;;;;;5091939;28;20182;-65
2022/07/06 00:14:32;;;;;;;221.67;203.70;;;15.40;99.90;;;;;;5091639;28;20179;-65
2022/07/06 00:16:59;;;;;;;223.57;206.17;;;15.40;99.90;;;;;;5091820;28;20549;-65
2022/07/06 00:19:26;;;;;;;224.37;206.27;;;15.20;99.90;;;;;;5072077;28;20653;-64
2022/07/06 00:21:54;;;;;;;221.13;201.83;;;15.20;99.90;;;;;;5076374;28;20309;-64
2022/07/06 00:24:21;;;;;;;216.33;198.13;;;15.10;99.90;;;;;;5074552;28;20203;-64
2022/07/06 00:26:48;;;;;;;219.50;200.17;;;15.10;99.90;;;;;;5073528;28;20739;-65
2022/07/06 00:29:16;;;;;;;217.87;198.67;;;15.20;99.90;;;;;;5071121;28;20219;-65
2022/07/06 00:31:43;;;;;;;209.80;190.27;;;15.30;99.90;;;;;;5071293;28;20171;-64
2022/07/06 00:34:10;;;;;;;206.17;187.57;;;15.30;99.90;;;;;;5086634;28;20193;-66
2022/07/06 00:36:37;;;;;;;210.60;192.47;;;15.50;99.90;;;;;;5078605;28;20176;-67
2022/07/06 00:39:05;;;;;;;206.80;188.83;;;15.60;99.90;;;;;;5072894;28;20556;-66
2022/07/06 00:41:32;;;;;;;211.73;193.07;;;15.70;99.90;;;;;;5080105;28;20186;-67
2022/07/06 00:43:59;;;;;;;205.93;187.93;;;15.80;99.90;;;;;;5091569;28;20536;-66
2022/07/06 00:46:32;;;;;;;202.87;183.77;;;15.70;99.90;;;;;;5089848;28;20183;-65
2022/07/06 00:49:00;;;;;;;201.13;182.83;;;15.80;99.90;;;;;;5091942;28;20218;-66
2022/07/06 00:51:31;;;;;;;207.07;188.17;;;15.70;99.90;;;;;;5085336;28;20245;-65
2022/07/06 00:54:04;;;;;;;222.13;202.53;;;15.80;99.90;;;;;;5085542;28;20199;-66
2022/07/06 00:56:33;;;;;;;221.80;202.37;;;15.80;99.90;;;;;;5054506;28;20625;-65
2022/07/06 00:59:03;;;;;;;221.47;201.97;;;15.80;99.90;;;;;;5091789;28;20184;-64
2022/07/06 01:01:30;;;;;;;228.00;208.63;;;15.90;99.90;;;;;;5073591;28;20604;-64
2022/07/06 01:03:58;;;;;;;227.83;207.73;;;15.90;99.90;;;;;;5091498;28;20837;-65
2022/07/06 01:06:25;;;;;;;217.33;198.93;;;16.00;99.90;;;;;;5091823;28;20187;-65
2022/07/06 01:08:52;;;;;;;219.63;200.77;;;16.10;99.90;;;;;;5072828;28;20245;-64
2022/07/06 01:11:20;;;;;;;217.57;199.07;;;16.30;99.90;;;;;;5062204;28;20237;-65
2022/07/06 01:13:49;;;;;;;212.87;194.10;;;16.30;99.90;;;;;;5071336;28;20188;-65
2022/07/06 01:16:17;;;;;;;198.27;180.90;;;16.40;99.90;;;;;;5085531;28;20190;-65
2022/07/06 01:18:44;;;;;;;193.43;176.50;;;16.40;99.90;;;;;;5072458;28;20185;-64
2022/07/06 01:21:14;;;;;;;193.17;175.83;;;16.30;99.90;;;;;;5091292;28;20190;-65
2022/07/06 01:23:43;;;;;;;193.53;176.47;;;16.20;99.90;;;;;;5091475;28;20207;-67
2022/07/06 01:26:20;;;;;;;196.87;179.83;;;15.90;99.90;;;;;;5091636;28;20182;-65
2022/07/06 01:28:51;;;;;;;215.60;197.47;;;15.70;99.90;;;;;;5095002;28;20216;-65
2022/07/06 01:31:25;;;;;;;192.90;174.97;;;15.70;99.90;;;;;;5095042;28;20179;-66
2022/07/06 01:33:54;;;;;;;194.93;178.10;;;15.70;99.90;;;;;;5094885;28;20210;-66
2022/07/06 01:36:22;;;;;;;197.47;179.83;;;15.70;99.90;;;;;;5095256;28;20179;-66
2022/07/06 01:38:52;;;;;;;203.70;186.63;;;15.80;99.90;;;;;;5085873;28;20180;-66
2022/07/06 01:41:20;;;;;;;199.83;182.23;;;15.80;99.90;;;;;;5080593;28;20254;-65
2022/07/06 01:43:48;;;;;;;210.43;193.03;;;15.90;99.90;;;;;;5076888;28;20201;-64
2022/07/06 01:46:16;;;;;;;196.13;179.20;;;16.00;99.90;;;;;;5094448;28;20193;-67
2022/07/06 01:48:43;;;;;;;194.90;178.47;;;16.00;99.90;;;;;;5094635;28;20199;-66
2022/07/06 01:51:11;;;;;;;211.67;194.13;;;16.00;99.90;;;;;;5094897;28;20179;-66
2022/07/06 01:53:39;;;;;;;205.83;188.17;;;16.10;99.90;;;;;;5094814;28;20278;-66
2022/07/06 01:56:07;;;;;;;225.53;207.90;;;16.30;99.90;;;;;;5089291;28;20641;-65
2022/07/06 01:58:35;;;;;;;222.83;205.93;;;16.60;99.90;;;;;;5094387;28;20402;-65
2022/07/06 02:01:12;;;;;;;225.93;210.03;;;16.80;99.90;;;;;;5094468;28;20183;-66
2022/07/06 02:03:39;;;;;;;221.03;204.90;;;17.00;99.90;;;;;;5086379;28;20174;-65
2022/07/06 02:06:08;;;;;;;209.43;194.03;;;17.00;99.90;;;;;;5087605;28;20671;-66
2022/07/06 02:08:36;;;;;;;209.20;195.27;;;17.00;99.90;;;;;;5076032;28;20625;-65
2022/07/06 02:11:05;;;;;;;206.20;192.57;;;17.00;99.90;;;;;;5094378;28;20228;-65
2022/07/06 02:13:33;;;;;;;199.47;186.50;;;16.80;99.90;;;;;;5093948;28;20175;-64
2022/07/06 02:16:00;;;;;;;198.73;185.93;;;16.70;99.90;;;;;;5094054;28;20258;-64
2022/07/06 02:18:28;;;;;;;189.37;177.67;;;16.80;99.90;;;;;;5094143;28;20187;-64
2022/07/06 02:20:56;;;;;;;185.40;174.43;;;16.70;99.90;;;;;;5094106;28;20672;-64
2022/07/06 02:23:23;;;;;;;195.13;183.40;;;16.70;99.90;;;;;;5093950;28;20175;-65
2022/07/06 02:25:50;;;;;;;199.43;186.77;;;16.60;99.90;;;;;;5094316;28;20178;-66
2022/07/06 02:28:18;;;;;;;193.50;181.23;;;16.70;99.90;;;;;;5091708;28;20235;-64
2022/07/06 02:30:45;;;;;;;197.47;185.27;;;16.70;99.90;;;;;;5093590;28;20179;-65
2022/07/06 02:33:12;;;;;;;202.60;189.30;;;16.60;99.90;;;;;;5094273;28;20172;-64
2022/07/06 02:35:42;;;;;;;188.80;176.83;;;16.60;99.90;;;;;;5094094;28;20174;-64
2022/07/06 02:38:10;;;;;;;193.10;181.53;;;16.60;99.90;;;;;;5093184;28;20183;-65
2022/07/06 02:40:38;;;;;;;207.07;193.73;;;16.60;99.90;;;;;;5094203;28;20216;-65
2022/07/06 02:43:06;;;;;;;186.23;175.27;;;16.60;99.90;;;;;;5075882;28;20226;-65
2022/07/06 02:45:33;;;;;;;197.90;186.10;;;16.60;99.90;;;;;;5093936;28;20195;-65
2022/07/06 02:48:01;;;;;;;204.80;192.60;;;16.70;99.90;;;;;;5081791;28;20679;-65
2022/07/06 02:50:28;;;;;;;187.07;176.23;;;16.70;99.90;;;;;;5080559;28;20183;-65
2022/07/06 02:52:55;;;;;;;181.17;170.47;;;16.70;99.90;;;;;;5072990;28;20207;-65
2022/07/06 02:55:23;;;;;;;176.13;166.00;;;16.70;99.90;;;;;;5075177;28;20182;-65
2022/07/06 02:57:50;;;;;;;178.83;168.43;;;16.70;99.90;;;;;;5085116;28;20179;-66
2022/07/06 03:00:18;;;;;;;171.43;160.93;;;16.70;99.90;;;;;;5094595;28;20232;-66
2022/07/06 03:02:45;;;;;;;199.67;186.93;;;16.60;99.90;;;;;;5078185;28;20761;-66
2022/07/06 03:05:12;;;;;;;218.77;204.47;;;16.50;99.90;;;;;;5074172;28;20178;-65
2022/07/06 03:07:40;;;;;;;212.57;197.40;;;16.40;99.90;;;;;;5074348;28;20587;-67
2022/07/06 03:10:08;;;;;;;222.63;205.83;;;16.30;99.90;;;;;;5073790;28;20720;-67
2022/07/06 03:12:35;;;;;;;232.20;213.33;;;16.20;99.90;;;;;;5074361;28;20190;-66
2022/07/06 03:15:03;;;;;;;223.60;205.60;;;16.10;99.90;;;;;;5074361;28;20211;-66
2022/07/06 03:17:30;;;;;;;228.13;208.97;;;15.90;99.90;;;;;;5074013;28;20181;-66
2022/07/06 03:19:57;;;;;;;221.43;202.57;;;15.80;99.90;;;;;;5074331;28;20634;-66
2022/07/06 03:22:24;;;;;;;227.97;208.57;;;15.80;99.90;;;;;;5074220;28;20183;-67
2022/07/06 03:24:52;;;;;;;230.50;209.83;;;15.70;99.90;;;;;;5074255;28;20231;-67
2022/07/06 03:27:19;;;;;;;231.67;211.27;;;15.60;99.90;;;;;;5073833;28;20300;-67
2022/07/06 03:29:46;;;;;;;227.53;207.27;;;15.50;99.90;;;;;;5055871;28;20650;-67
2022/07/06 03:32:14;;;;;;;228.60;208.60;;;15.60;99.90;;;;;;5073985;28;20262;-66
2022/07/06 03:34:41;;;;;;;221.57;201.13;;;15.60;99.90;;;;;;5073957;28;20204;-66
2022/07/06 03:37:08;;;;;;;223.83;203.33;;;15.70;99.90;;;;;;5073693;28;20535;-67
2022/07/06 03:39:36;;;;;;;224.13;204.63;;;15.70;99.90;;;;;;5073675;28;20627;-67
2022/07/06 03:42:03;;;;;;;229.87;210.33;;;15.70;99.90;;;;;;5055813;28;20266;-65
2022/07/06 03:44:30;;;;;;;222.10;202.53;;;15.80;99.90;;;;;;5072821;28;20186;-66
2022/07/06 03:46:58;;;;;;;223.63;204.30;;;15.80;99.90;;;;;;5073163;28;20187;-65
2022/07/06 03:49:27;;;;;;;231.77;211.87;;;15.80;99.90;;;;;;5054428;28;20679;-66
2022/07/06 03:51:54;;;;;;;228.20;209.20;;;15.80;99.90;;;;;;5073727;28;20170;-65
2022/07/06 03:54:22;;;;;;;221.77;201.97;;;15.90;99.90;;;;;;5073476;28;20185;-66
2022/07/06 03:56:49;;;;;;;223.97;205.13;;;16.00;99.90;;;;;;5073367;28;20205;-66
2022/07/06 03:59:16;;;;;;;226.03;207.17;;;16.00;99.90;;;;;;5073248;28;20207;-66
2022/07/06 04:01:44;;;;;;;222.30;203.40;;;16.00;99.90;;;;;;5073294;28;20178;-65
2022/07/06 04:04:11;;;;;;;222.87;203.77;;;16.00;99.90;;;;;;5073772;28;20262;-65
2022/07/06 04:06:39;;;;;;;233.40;216.23;;;16.00;99.90;;;;;;5072694;28;20191;-65
2022/07/06 04:09:06;;;;;;;233.40;215.10;;;16.00;99.90;;;;;;5072453;28;20241;-64
2022/07/06 04:11:34;;;;;;;225.53;207.80;;;16.00;99.90;;;;;;5072748;28;20172;-66
2022/07/06 04:14:01;;;;;;;241.27;222.93;;;16.10;99.90;;;;;;5072719;28;20546;-65
2022/07/06 04:16:28;;;;;;;259.83;241.73;;;16.10;99.90;;;;;;5090599;28;20185;-66
2022/07/06 04:18:56;;;;;;;255.90;237.77;;;16.10;99.90;;;;;;5092532;28;20182;-66
2022/07/06 04:21:23;;;;;;;253.73;236.53;;;16.20;99.90;;;;;;5088224;28;20185;-67
2022/07/06 04:23:50;;;;;;;247.57;230.77;;;16.20;99.90;;;;;;5092795;28;20316;-68
2022/07/06 04:26:18;;;;;;;252.90;235.33;;;16.20;99.90;;;;;;5093046;28;20174;-68
2022/07/06 04:28:45;;;;;;;259.30;241.13;;;16.20;99.90;;;;;;5093282;28;20558;-68
2022/07/06 04:31:15;;;;;;;255.63;238.03;;;16.20;99.90;;;;;;5093305;28;20178;-68
2022/07/06 04:33:43;;;;;;;260.20;243.03;;;16.20;99.90;;;;;;5074946;28;20190;-68
2022/07/06 04:36:11;;;;;;;257.00;239.57;;;16.20;99.90;;;;;;5092894;28;20274;-68
2022/07/06 04:38:38;;;;;;;249.40;233.20;;;16.20;99.90;;;;;;5093271;28;20636;-68
2022/07/06 04:41:06;;;;;;;250.63;233.63;;;16.20;99.90;;;;;;5093215;28;20194;-68
2022/07/06 04:43:33;;;;;;;249.63;232.73;;;16.30;99.90;;;;;;5093220;28;20227;-68
2022/07/06 04:46:01;;;;;;;256.70;239.40;;;16.30;99.90;;;;;;5093240;28;20656;-68
2022/07/06 04:48:28;;;;;;;265.03;248.17;;;16.20;99.90;;;;;;5093005;28;20218;-68
2022/07/06 04:50:56;;;;;;;248.40;230.87;;;16.20;99.90;;;;;;5093100;28;20172;-68
2022/07/06 04:53:23;;;;;;;241.30;224.50;;;16.20;99.90;;;;;;5093077;28;20174;-68
2022/07/06 04:55:50;;;;;;;238.87;222.67;;;16.20;99.90;;;;;;5093098;28;20182;-68
2022/07/06 04:58:18;;;;;;;243.63;226.70;;;16.20;99.90;;;;;;5092836;28;20629;-68
2022/07/06 05:00:46;;;;;;;240.73;224.63;;;16.20;99.90;;;;;;5095142;28;20541;-68
2022/07/06 05:03:13;;;;;;;242.37;226.67;;;16.10;99.90;;;;;;5097088;28;20268;-68
2022/07/06 05:05:40;;;;;;;250.63;234.33;;;16.10;99.90;;;;;;5096948;28;20177;-68
2022/07/06 05:08:08;;;;;;;253.17;236.17;;;16.10;99.90;;;;;;5096930;28;20206;-68
2022/07/06 05:10:35;;;;;;;260.90;243.47;;;16.10;99.90;;;;;;5096963;28;20175;-69
2022/07/06 05:13:02;;;;;;;258.87;240.13;;;16.00;99.90;;;;;;5097166;28;20175;-69
2022/07/06 05:15:30;;;;;;;265.33;247.03;;;16.00;99.90;;;;;;5096994;28;20197;-69
2022/07/06 05:17:57;;;;;;;253.13;236.10;;;16.00;99.90;;;;;;5096844;28;20185;-69
2022/07/06 05:20:25;;;;;;;250.33;232.83;;;16.00;99.90;;;;;;5096873;28;20542;-69
2022/07/06 05:22:52;;;;;;;255.70;237.33;;;16.00;99.90;;;;;;5096276;28;20217;-68
2022/07/06 05:25:19;;;;;;;255.03;236.93;;;16.00;99.90;;;;;;5096670;28;20186;-68
2022/07/06 05:27:47;;;;;;;252.00;234.20;;;16.00;99.90;;;;;;5096520;28;20251;-68
2022/07/06 05:30:15;;;;;;;256.27;237.73;;;16.00;99.90;;;;;;5096534;28;20174;-68
2022/07/06 05:32:42;;;;;;;261.50;242.87;;;16.00;99.90;;;;;;5078345;28;20177;-68
2022/07/06 05:35:10;;;;;;;263.70;245.27;;;16.00;99.90;;;;;;5078212;28;20656;-68
2022/07/06 05:37:37;;;;;;;273.10;254.27;;;16.00;99.90;;;;;;5078325;28;20674;-68
2022/07/06 05:40:05;;;;;;;266.07;248.43;;;16.00;99.90;;;;;;5096548;28;20210;-68
2022/07/06 05:42:32;;;;;;;267.87;249.77;;;16.00;99.90;;;;;;5096411;28;20166;-68
2022/07/06 05:45:00;;;;;;;269.00;251.23;;;16.10;99.90;;;;;;5096122;28;20175;-68
2022/07/06 05:50:12;;;;;;;275.43;258.10;;;16.10;99.90;;;;;;5096932;28;20186;-68
2022/07/06 05:52:44;;;;;;;276.70;259.00;;;16.00;99.90;;;;;;5096893;28;20223;-68
2022/07/06 05:55:13;;;;;;;274.53;256.57;;;16.00;99.90;;;;;;5096065;28;20183;-68
2022/07/06 05:57:40;;;;;;;278.60;260.27;;;16.00;99.90;;;;;;5096126;28;20208;-67
2022/07/06 06:00:08;;;;;;;288.17;268.37;;;15.90;99.90;;;;;;5096071;28;20173;-67
2022/07/06 06:02:43;;;;;;;273.73;254.97;;;15.90;99.90;;;;;;5096143;28;20180;-67
2022/07/06 06:05:11;;;;;;;269.63;250.67;;;15.90;99.90;;;;;;5095954;28;20166;-67
2022/07/06 06:07:39;;;;;;;278.27;259.13;;;15.90;99.90;;;;;;5095637;28;20291;-68
2022/07/06 06:10:09;;;;;;;302.90;281.50;;;15.80;99.90;;;;;;5095835;28;20175;-68
2022/07/06 06:12:37;;;;;;;269.27;249.40;;;15.80;99.90;;;;;;5076985;28;20553;-68
2022/07/06 06:15:06;;;;;;;270.70;250.80;;;15.80;99.90;;;;;;5095977;28;20703;-68
2022/07/06 06:17:34;;;;;;;269.13;250.10;;;15.70;99.90;;;;;;5095651;28;20172;-68
2022/07/06 06:20:01;;;;;;;270.73;251.23;;;15.70;99.90;;;;;;5095811;28;20251;-68
2022/07/06 06:22:28;;;;;;;275.80;256.63;;;15.70;99.90;;;;;;5095622;28;20241;-68
2022/07/06 06:24:55;;;;;;;265.27;246.73;;;15.70;99.90;;;;;;5095586;28;20179;-68
2022/07/06 06:27:23;;;;;;;261.90;242.43;;;15.70;99.90;;;;;;5095366;28;20226;-68
2022/07/06 06:29:51;;;;;;;261.20;243.37;;;15.60;99.90;;;;;;5095451;28;20183;-68
2022/07/06 06:32:19;;;;;;;252.70;234.47;;;15.60;99.90;;;;;;5095589;28;20199;-68
2022/07/06 06:34:46;;;;;;;267.37;248.07;;;15.60;99.90;;;;;;5095442;28;20175;-68
2022/07/06 06:37:14;;;;;;;266.13;248.13;;;15.60;99.90;;;;;;5095311;28;20170;-68
2022/07/06 06:39:42;;;;;;;275.73;256.27;;;15.60;99.90;;;;;;5095259;28;20171;-68
2022/07/06 06:42:09;;;;;;;271.07;250.67;;;15.60;99.90;;;;;;5095303;28;20175;-68
2022/07/06 06:44:37;;;;;;;265.23;245.40;;;15.50;99.90;;;;;;5095330;28;20179;-68
2022/07/06 06:47:05;;;;;;;254.80;235.87;;;15.40;99.90;;;;;;5095169;28;20178;-68
2022/07/06 06:49:32;;;;;;;267.27;247.17;;;15.40;99.90;;;;;;5095065;28;20781;-68
2022/07/06 06:52:00;;;;;;;300.27;278.40;;;15.30;99.90;;;;;;5095065;28;20202;-68
2022/07/06 06:54:28;;;;;;;260.50;240.37;;;15.30;99.90;;;;;;5094928;28;20279;-68
2022/07/06 06:56:56;;;;;;;269.13;248.27;;;15.20;99.90;;;;;;5094918;28;20179;-68
2022/07/06 06:59:23;;;;;;;254.87;235.67;;;15.20;99.90;;;;;;5095015;28;20171;-68
2022/07/06 07:01:51;;;;;;;261.20;241.47;;;15.10;99.90;;;;;;5094805;28;20210;-68
2022/07/06 07:04:19;;;;;;;259.93;240.13;;;15.00;99.90;;;;;;5094850;28;20176;-68
2022/07/06 07:06:47;;;;;;;258.20;238.90;;;15.00;99.90;;;;;;5094858;28;20202;-69
2022/07/06 07:09:14;;;;;;;256.03;236.73;;;15.00;99.90;;;;;;5076578;28;20218;-69
2022/07/06 07:11:43;;;;;;;253.90;234.77;;;15.00;99.90;;;;;;5094917;28;20171;-68
2022/07/06 07:14:10;;;;;;;248.17;229.27;;;15.00;99.90;;;;;;5094624;28;20645;-69
2022/07/06 07:16:38;;;;;;;249.87;230.27;;;15.00;99.90;;;;;;5094558;28;20311;-68
2022/07/06 07:19:06;;;;;;;241.90;222.80;;;14.90;99.90;;;;;;5094549;28;20201;-68
2022/07/06 07:21:33;;;;;;;238.43;220.03;;;14.90;99.90;;;;;;5094460;28;20260;-68
2022/07/06 07:24:01;;;;;;;236.80;218.00;;;14.90;99.90;;;;;;5094375;28;20179;-67
2022/07/06 07:26:29;;;;;;;236.17;217.70;;;14.80;99.90;;;;;;5094329;28;20307;-68
2022/07/06 07:28:56;;;;;;;231.63;213.70;;;14.90;99.90;;;;;;5094110;28;20656;-68
2022/07/06 07:31:24;;;;;;;235.23;216.87;;;14.90;99.90;;;;;;5094249;28;20174;-68
2022/07/06 07:33:52;;;;;;;231.43;213.37;;;14.90;99.90;;;;;;5094228;28;20538;-68
2022/07/06 07:36:19;;;;;;;235.00;217.60;;;14.90;99.90;;;;;;5094149;28;20228;-68
2022/07/06 07:38:47;;;;;;;245.73;227.27;;;14.90;99.90;;;;;;5094333;28;20183;-68
2022/07/06 07:41:16;;;;;;;244.17;225.87;;;14.90;99.90;;;;;;5094052;28;20538;-68
2022/07/06 07:43:44;;;;;;;251.97;234.10;;;14.90;99.90;;;;;;5094174;28;20270;-68
2022/07/06 07:46:12;;;;;;;252.47;234.30;;;14.90;99.90;;;;;;5094045;28;20174;-68
2022/07/06 07:48:40;;;;;;;254.23;235.67;;;14.90;99.90;;;;;;5093920;28;20218;-68
2022/07/06 07:51:07;;;;;;;251.47;233.57;;;14.90;99.90;;;;;;5094149;28;20201;-68
2022/07/06 07:53:35;;;;;;;255.90;237.67;;;14.80;99.90;;;;;;5094095;28;20186;-68
2022/07/06 07:56:03;;;;;;;257.93;239.47;;;14.80;99.90;;;;;;5093716;28;20257;-68
2022/07/06 07:58:31;;;;;;;262.10;243.70;;;14.80;99.90;;;;;;5075419;28;20239;-68
2022/07/06 08:00:59;;;;;;;274.00;254.23;;;14.80;99.90;;;;;;5093760;28;20168;-68
2022/07/06 08:03:26;;;;;;;263.63;244.53;;;14.80;99.90;;;;;;5093711;28;20206;-68
2022/07/06 08:05:54;;;;;;;255.27;236.77;;;14.80;99.90;;;;;;5093800;28;20498;-68
2022/07/06 08:08:22;;;;;;;262.77;243.50;;;14.80;99.90;;;;;;5093685;28;20207;-68
2022/07/06 08:10:50;;;;;;;270.57;250.57;;;14.80;99.90;;;;;;5093543;28;20180;-68
2022/07/06 08:13:17;;;;;;;257.00;238.83;;;14.70;99.90;;;;;;5093725;28;20222;-68
2022/07/06 08:15:45;;;;;;;260.60;242.20;;;14.70;99.90;;;;;;5093545;28;20176;-68
2022/07/06 08:18:13;;;;;;;253.80;235.40;;;14.70;99.90;;;;;;5093516;28;20233;-67
2022/07/06 08:20:41;;;;;;;263.53;244.73;;;14.70;99.90;;;;;;5093503;28;20167;-67
2022/07/06 08:23:08;;;;;;;255.57;237.67;;;14.70;99.90;;;;;;5093342;28;20183;-67
2022/07/06 08:25:36;;;;;;;266.17;246.83;;;14.70;99.90;;;;;;5093172;28;20172;-67
2022/07/06 08:28:04;;;;;;;272.53;252.67;;;14.70;99.90;;;;;;5092818;28;20246;-68
2022/07/06 08:30:34;;;;;;;270.50;251.30;;;14.70;99.90;;;;;;5093112;28;20191;-68
2022/07/06 08:33:02;;;;;;;266.77;248.17;;;14.70;99.90;;;;;;5093317;28;20170;-68
2022/07/06 08:35:31;;;;;;;256.90;238.77;;;14.70;99.90;;;;;;5093028;28;20207;-68
2022/07/06 08:37:58;;;;;;;256.70;239.00;;;14.70;99.90;;;;;;5093001;28;20190;-68
2022/07/06 08:40:31;;;;;;;261.90;243.73;;;14.70;99.90;;;;;;5093149;28;20190;-69
2022/07/06 08:43:01;;;;;;;259.57;240.97;;;14.70;99.90;;;;;;5093414;28;20179;-68
2022/07/06 08:45:30;;;;;;;254.33;236.33;;;14.70;99.90;;;;;;5092997;28;20175;-68
2022/07/06 08:48:04;;;;;;;252.10;233.73;;;14.70;99.90;;;;;;5092931;28;20209;-68
2022/07/06 08:50:35;;;;;;;251.03;232.73;;;14.60;99.90;;;;;;5093000;28;20190;-68
2022/07/06 08:53:04;;;;;;;247.60;229.33;;;14.60;99.90;;;;;;5093060;28;20208;-68
2022/07/06 08:55:33;;;;;;;244.43;226.63;;;14.60;99.90;;;;;;5092952;28;20183;-68
2022/07/06 08:58:00;;;;;;;246.77;228.17;;;14.50;99.90;;;;;;5092916;28;20209;-68
2022/07/06 09:00:28;;;;;;;245.07;226.77;;;14.50;99.90;;;;;;5092968;28;20584;-68
2022/07/06 09:02:56;;;;;;;239.97;222.07;;;14.50;99.90;;;;;;5092966;28;20510;-68
2022/07/06 09:05:25;;;;;;;242.40;224.60;;;14.50;99.90;;;;;;5092986;28;20528;-68
2022/07/06 09:07:54;;;;;;;246.27;228.00;;;14.50;99.90;;;;;;5074883;28;20570;-68
2022/07/06 09:10:22;;;;;;;241.73;224.17;;;14.50;99.90;;;;;;5093124;28;20189;-68
2022/07/06 09:12:50;;;;;;;246.60;227.90;;;14.40;99.90;;;;;;5093089;28;20632;-68
2022/07/06 09:15:18;;;;;;;251.40;232.83;;;14.40;99.90;;;;;;5092924;28;20729;-68
2022/07/06 09:17:45;;;;;;;245.67;227.07;;;14.40;99.90;;;;;;5092859;28;20191;-68
2022/07/06 09:20:14;;;;;;;243.63;225.17;;;14.40;99.90;;;;;;5074725;28;20210;-68
2022/07/06 09:22:42;;;;;;;242.30;223.93;;;14.30;99.90;;;;;;5092993;28;20190;-68
2022/07/06 09:25:13;;;;;;;235.33;216.77;;;14.30;99.90;;;;;;5092795;28;20175;-68
2022/07/06 09:27:42;;;;;;;246.60;227.33;;;14.30;99.90;;;;;;5092650;28;20233;-68
2022/07/06 09:30:11;;;;;;;236.20;217.53;;;14.20;99.90;;;;;;5092736;28;20263;-68
2022/07/06 09:32:57;;;;;;;240.63;221.93;;;14.20;99.90;;;;;;5092846;28;20202;-68
2022/07/06 09:35:36;;;;;;;237.03;218.47;;;14.20;99.90;;;;;;5092846;28;20270;-67
2022/07/06 09:38:13;;;;;;;232.73;213.93;;;14.20;99.90;;;;;;5092723;28;20597;-67
2022/07/06 09:40:45;;;;;;;231.13;212.27;;;14.20;99.90;;;;;;5092756;28;20170;-67
2022/07/06 09:43:22;;;;;;;235.37;216.47;;;14.20;99.90;;;;;;5092691;28;20182;-67
2022/07/06 09:45:57;;;;;;;227.70;209.20;;;14.20;99.90;;;;;;5092645;28;20254;-67
2022/07/06 09:48:27;;;;;;;227.60;208.50;;;14.20;99.90;;;;;;5095360;28;20209;-67
2022/07/06 09:50:55;;;;;;;223.87;205.43;;;14.20;99.90;;;;;;5096291;28;20559;-67
2022/07/06 09:53:25;;;;;;;225.70;206.83;;;14.20;99.90;;;;;;5096285;28;20180;-67
2022/07/06 09:55:55;;;;;;;225.93;207.43;;;14.10;99.90;;;;;;5096162;28;20209;-67
2022/07/06 09:58:23;;;;;;;220.67;202.50;;;14.20;99.90;;;;;;5096169;28;20171;-67
2022/07/06 10:00:51;;;;;;;227.80;209.03;;;14.20;99.90;;;;;;5096160;28;20180;-68
2022/07/06 10:03:19;;;;;;;222.70;204.03;;;14.10;99.90;;;;;;5096026;28;20272;-67
2022/07/06 10:05:49;;;;;;;219.53;201.27;;;14.10;99.90;;;;;;5095883;28;20235;-67
2022/07/06 10:08:19;;;;;;;218.37;200.37;;;14.10;99.90;;;;;;5095853;28;20218;-67
2022/07/06 10:10:49;;;;;;;218.63;200.73;;;14.10;99.90;;;;;;5095989;28;20178;-68
2022/07/06 10:13:22;;;;;;;208.37;190.80;;;14.10;99.90;;;;;;5095957;28;20189;-68
2022/07/06 10:15:50;;;;;;;223.93;205.53;;;14.20;99.90;;;;;;5095930;28;20235;-68
2022/07/06 10:18:19;;;;;;;218.53;200.30;;;14.10;99.90;;;;;;5095750;28;20530;-68
2022/07/06 10:20:47;;;;;;;214.87;196.90;;;14.10;99.90;;;;;;5095885;28;20183;-68
2022/07/06 10:23:15;;;;;;;220.13;201.73;;;14.10;99.90;;;;;;5095877;28;20264;-68
2022/07/06 10:25:44;;;;;;;217.43;199.43;;;14.10;99.90;;;;;;5095547;28;20183;-68
2022/07/06 10:28:14;;;;;;;220.20;201.90;;;14.10;99.90;;;;;;5095366;28;20282;-68
2022/07/06 10:30:43;;;;;;;220.27;201.87;;;14.10;99.90;;;;;;5095581;28;20178;-68
2022/07/06 10:33:14;;;;;;;216.10;197.80;;;14.10;99.90;;;;;;5077260;28;20186;-68
2022/07/06 10:35:43;;;;;;;220.00;201.67;;;14.10;99.90;;;;;;5077485;28;20232;-67
2022/07/06 10:38:12;;;;;;;211.33;193.23;;;14.10;99.90;;;;;;5095538;28;20589;-67
2022/07/06 10:43:38;;;;;;;221.67;203.07;;;14.10;99.90;;;;;;5095649;28;20216;-68
2022/07/06 10:46:11;;;;;;;228.73;210.23;;;14.10;99.90;;;;;;5095527;28;20206;-67
2022/07/06 10:48:41;;;;;;;237.13;218.00;;;14.10;99.90;;;;;;5095410;28;20198;-67
2022/07/06 10:51:22;;;;;;;234.70;216.27;;;14.10;99.90;;;;;;5095197;28;20174;-67
2022/07/06 10:54:04;;;;;;;230.07;211.23;;;14.10;99.90;;;;;;5095706;28;20167;-67
2022/07/06 10:56:40;;;;;;;227.63;209.00;;;14.10;99.90;;;;;;5095139;28;20175;-67
2022/07/06 10:59:13;;;;;;;224.67;205.93;;;14.10;99.90;;;;;;5094637;28;20658;-68
2022/07/06 11:02:01;;;;;;;225.50;206.60;;;14.10;99.90;;;;;;5095244;28;20183;-68
2022/07/06 11:04:33;;;;;;;220.90;202.40;;;14.10;99.90;;;;;;5094979;28;20575;-68
2022/07/06 11:07:12;;;;;;;223.23;204.63;;;14.10;99.90;;;;;;5095065;28;20192;-67
2022/07/06 11:09:47;;;;;;;223.80;205.20;;;14.10;99.90;;;;;;5094946;28;20594;-67
2022/07/06 11:12:21;;;;;;;226.27;207.70;;;14.10;99.90;;;;;;5094704;28;20186;-68
2022/07/06 11:14:51;;;;;;;221.30;202.87;;;14.10;99.90;;;;;;5094855;28;20222;-68
2022/07/06 11:17:19;;;;;;;221.23;202.63;;;14.10;99.90;;;;;;5094622;28;20167;-68
2022/07/06 11:19:56;;;;;;;227.87;208.87;;;14.10;99.90;;;;;;5094887;28;20219;-68
2022/07/06 11:22:24;;;;;;;224.33;205.83;;;14.10;99.90;;;;;;5094838;28;20259;-68
2022/07/06 11:24:53;;;;;;;219.40;201.13;;;14.10;99.90;;;;;;5094566;28;20508;-68
2022/07/06 11:27:24;;;;;;;227.80;209.20;;;14.20;99.90;;;;;;5094453;28;20272;-68
2022/07/06 11:29:52;;;;;;;227.20;208.83;;;14.20;99.90;;;;;;5094505;28;20218;-68
2022/07/06 11:32:25;;;;;;;230.20;211.40;;;14.20;99.90;;;;;;5094559;28;20178;-68
2022/07/06 11:34:53;;;;;;;232.30;213.13;;;14.10;99.90;;;;;;5094251;28;20186;-68
2022/07/06 11:37:23;;;;;;;231.70;213.20;;;14.10;99.90;;;;;;5094441;28;20185;-68
2022/07/06 11:39:50;;;;;;;234.40;215.53;;;14.10;99.90;;;;;;5094480;28;20537;-68
2022/07/06 11:42:19;;;;;;;231.03;212.83;;;14.20;99.90;;;;;;5094380;28;20183;-68
2022/07/06 11:44:50;;;;;;;229.90;212.00;;;14.20;99.90;;;;;;5094240;28;20178;-68
2022/07/06 11:47:18;;;;;;;231.70;213.20;;;14.20;99.90;;;;;;5094208;28;20201;-68
2022/07/06 11:49:52;;;;;;;234.80;216.43;;;14.20;99.90;;;;;;5094073;28;20312;-68
2022/07/06 11:52:19;;;;;;;235.67;217.23;;;14.10;99.90;;;;;;5094185;28;20178;-68
2022/07/06 11:54:47;;;;;;;238.87;220.30;;;14.10;99.90;;;;;;5093947;28;20197;-68
2022/07/06 11:57:15;;;;;;;233.77;215.07;;;14.10;99.90;;;;;;5093966;28;20170;-68
2022/07/06 11:59:46;;;;;;;234.47;215.10;;;14.10;99.90;;;;;;5093739;28;20220;-68
2022/07/06 12:02:17;;;;;;;236.57;216.67;;;14.00;99.90;;;;;;5093871;28;20174;-68
2022/07/06 12:04:46;;;;;;;227.50;208.00;;;14.00;99.90;;;;;;5094067;28;20171;-68
2022/07/06 12:07:16;;;;;;;225.43;206.13;;;13.90;99.90;;;;;;5093835;28;20535;-68
2022/07/06 12:09:46;;;;;;;227.90;208.00;;;13.80;99.90;;;;;;5093019;28;20241;-68
2022/07/06 12:12:16;;;;;;;223.93;204.83;;;13.80;99.90;;;;;;5093590;28;20177;-67
2022/07/06 12:14:44;;;;;;;218.57;199.60;;;13.80;99.90;;;;;;5093711;28;20174;-67
2022/07/06 12:17:14;;;;;;;214.80;196.37;;;13.80;99.90;;;;;;5093474;28;20647;-67
2022/07/06 12:19:42;;;;;;;214.60;196.30;;;13.80;99.90;;;;;;5093608;28;20174;-67
2022/07/06 12:22:11;;;;;;;217.00;198.53;;;13.80;99.90;;;;;;5093671;28;20174;-68